This is the latest recevied weather packets stored in our database for station/object MM9SQL. If no packets are shown the sender has not sent any weather packets the latest 10 day(s).
| Time | Temp. | Humidity | Pressure | Rain* | Wind** | Luminosity | Snow |
|---|---|---|---|---|---|---|---|
| 1777623317 | 16.11° C | 51% | 1017.7 hPa | 0 mm | - | - | - |
| 1777622705 | 15.56° C | 52% | 1017.7 hPa | 0 mm | - | - | - |
| 1777620903 | 15° C | 54% | 1017.8 hPa | 0 mm | - | - | - |
| 1777619408 | 14.44° C | 53% | 1018.1 hPa | 0 mm | - | - | - |
| 1777618204 | 13.89° C | 56% | 1017.8 hPa | 0 mm | - | - | - |
| 1777616112 | 11.67° C | 61% | 1017.8 hPa | 0 mm | - | - | - |
| 1777614602 | 9.44° C | 73% | 1017.7 hPa | 0 mm | - | - | - |
| 1777614003 | 7.78° C | 75% | 1017.7 hPa | 0 mm | - | - | - |
| 1777612506 | 6.11° C | 76% | 1017.9 hPa | 0 mm | - | - | - |
| 1777611907 | 5.56° C | 77% | 1018.2 hPa | 0 mm | - | - | - |
| 1777611008 | 5.56° C | 75% | 1018.2 hPa | 0 mm | - | - | - |
| 1777610402 | 5.56° C | 75% | 1018.2 hPa | 0 mm | - | - | - |
| 1777605304 | 7.22° C | 67% | 1018.4 hPa | 0 mm | - | - | - |
| 1777593630 | 10.56° C | 51% | 1020.1 hPa | 0 mm | - | - | - |
| 1777589406 | 12.22° C | 47% | 1020.2 hPa | 0 mm | - | - | - |
| 1777584010 | 12.78° C | 43% | 1020.6 hPa | 0 mm | - | - | - |
| 1777581607 | 12.78° C | 45% | 1020.8 hPa | 0 mm | - | - | - |
| 1777581304 | 12.78° C | 45% | 1020.6 hPa | 0 mm | - | - | - |
| 1777580704 | 13.33° C | 45% | 1020.3 hPa | 0 mm | - | - | - |
| 1777580123 | 13.33° C | 46% | 1020.3 hPa | 0 mm | - | - | - |
| 1777579810 | 13.89° C | 45% | 1020.4 hPa | 0 mm | - | - | - |
| 1777575309 | 17.22° C | 35% | 1020.5 hPa | 0 mm | - | - | - |
| 1777575009 | 17.22° C | 35% | 1020.4 hPa | 0 mm | - | - | - |
| 1777574414 | 17.78° C | 34% | 1020.3 hPa | 0 mm | - | - | - |
| 1777571405 | 19.44° C | 29% | 1020.7 hPa | 0 mm | - | - | - |
* Rain latest hour (hover to see other rain measurements)
** Current wind speed in m/s (hover to see current wind gust speed)